GMMB

Ben Slimane Airport

Ben Slimane, Morocco
METAR GMMB 211400Z 32009KT 290V350 9999 SCT020 SCT200 25/15 Q1017 NOSIG
Observed Flight Rules
Oct-21 @ 14:00 UTC (41 minutes ago) Visual Flight Rules
Wind Visibility Clouds
320° at 9 knots 10,000+ meters
  • Scattered at 2,000' AGL
  • Scattered at 20,000' AGL
Temperatures Readings
Current 25°C / 77°F
Dewpoint 15°C / 59°F
Humidity 54%
Altimeter 30.03" Hg
Pressure 1017 hPa
Elevation 191
METAR GMMB 211400Z 32009KT 290V350 9999 SCT020 SCT200 25/15 Q1017 NOSIG
Observed Flight Rules
Oct-21 @ 14:00 UTC
(41 minutes ago)
VFR
Wind Visibility
320° at 9 knots 10,000+ meters
Clouds
  • Scattered at 2,000' AGL
  • Scattered at 20,000' AGL
Temperature Dewpoint
25°C / 77°F 15°C / 59°F
Humidity Altimeter Pressure
54% 30.03" Hg 1017 hPa